createdAt,value
2019-01-08T00:01:17.761Z,72.60
2019-01-08T00:03:46.614Z,72.50
2019-01-08T00:06:15.518Z,72.30
2019-01-08T00:08:44.598Z,72.20
2019-01-08T00:11:13.457Z,72.20
2019-01-08T00:13:42.338Z,72.20
2019-01-08T00:16:11.249Z,72.30
2019-01-08T00:18:40.150Z,72.60
2019-01-08T00:21:09.006Z,72.80
2019-01-08T00:23:37.856Z,72.80
2019-01-08T00:26:06.831Z,72.60
2019-01-08T00:28:42.886Z,72.40
2019-01-08T00:31:06.641Z,72.10
2019-01-08T00:33:35.480Z,72.10
2019-01-08T00:36:04.442Z,72.10
2019-01-08T00:38:33.290Z,72.10
2019-01-08T00:41:02.222Z,72.10
2019-01-08T00:43:31.274Z,72.20
2019-01-08T00:46:00.921Z,72.20
2019-01-08T00:48:29.780Z,72.90
2019-01-08T00:50:58.707Z,72.40
2019-01-08T00:53:27.580Z,72.40
2019-01-08T00:55:56.408Z,72.50
2019-01-08T00:58:25.273Z,72.70
2019-01-08T01:00:54.381Z,72.80
2019-01-08T01:03:23.272Z,72.70
2019-01-08T01:05:52.135Z,72.70
2019-01-08T01:08:20.995Z,72.70
2019-01-08T01:10:49.870Z,72.70
2019-01-08T01:13:19.393Z,72.60
2019-01-08T01:15:48.366Z,72.60
2019-01-08T01:18:17.218Z,72.60
2019-01-08T01:20:46.241Z,72.60
2019-01-08T01:23:15.908Z,72.60
2019-01-08T01:25:44.830Z,72.60
2019-01-08T01:28:13.676Z,72.60
2019-01-08T01:30:42.581Z,72.50
2019-01-08T01:33:11.397Z,72.40
2019-01-08T01:35:40.325Z,72.30
2019-01-08T01:38:09.181Z,72.30
2019-01-08T01:40:38.314Z,72.00
2019-01-08T01:43:07.194Z,71.90
2019-01-08T01:45:36.089Z,71.70
2019-01-08T01:48:05.001Z,71.60
2019-01-08T01:50:33.951Z,71.30
2019-01-08T01:53:02.765Z,71.10
2019-01-08T01:55:31.701Z,70.80
2019-01-08T01:58:00.609Z,70.70
2019-01-08T02:00:29.612Z,70.60
2019-01-08T02:02:58.442Z,70.40
2019-01-08T02:05:27.365Z,70.20
2019-01-08T02:07:56.212Z,70.10
2019-01-08T02:10:28.461Z,70.10
2019-01-08T02:12:57.437Z,69.90
2019-01-08T02:15:26.565Z,69.70
2019-01-08T02:17:55.461Z,69.50
2019-01-08T02:20:24.308Z,69.30
2019-01-08T02:22:53.160Z,69.30
2019-01-08T02:25:22.065Z,69.20
2019-01-08T02:27:51.002Z,69.10
2019-01-08T02:30:20.625Z,69.10
2019-01-08T02:32:49.458Z,69.00
2019-01-08T02:35:18.468Z,68.90
2019-01-08T02:37:47.337Z,68.80
2019-01-08T02:40:16.298Z,68.90
2019-01-08T02:42:45.136Z,68.90
2019-01-08T02:45:14.029Z,69.00
2019-01-08T02:47:42.890Z,69.10
2019-01-08T02:50:11.897Z,69.30
2019-01-08T02:52:40.741Z,70.00
2019-01-08T02:55:09.655Z,69.40
2019-01-08T02:57:38.471Z,69.60
2019-01-08T03:00:07.450Z,69.60
2019-01-08T03:02:36.379Z,69.60
2019-01-08T03:05:05.376Z,69.60
2019-01-08T03:07:34.285Z,69.70
2019-01-08T03:10:03.218Z,69.80
2019-01-08T03:12:32.112Z,69.70
2019-01-08T03:15:01.787Z,69.80
2019-01-08T03:17:30.601Z,69.70
2019-01-08T03:19:59.775Z,69.70
2019-01-08T03:22:28.642Z,69.80
2019-01-08T03:24:57.489Z,69.80
2019-01-08T03:27:26.368Z,69.80
2019-01-08T03:29:55.365Z,69.80
2019-01-08T03:32:24.249Z,69.80
2019-01-08T03:34:53.079Z,69.70
2019-01-08T03:37:21.927Z,69.60
2019-01-08T03:39:51.108Z,69.80
2019-01-08T03:42:19.971Z,69.70
2019-01-08T03:44:48.878Z,69.60
2019-01-08T03:47:17.859Z,69.60
2019-01-08T03:49:47.121Z,69.60
2019-01-08T03:52:16.093Z,69.60
2019-01-08T03:54:45.009Z,69.60
2019-01-08T03:57:14.121Z,69.70
2019-01-08T03:59:43.308Z,69.70
2019-01-08T04:02:12.138Z,69.70
2019-01-08T04:04:41.066Z,69.60
2019-01-08T04:07:09.973Z,69.50
2019-01-08T04:09:38.981Z,69.50
2019-01-08T04:12:07.933Z,69.20
2019-01-08T04:14:36.779Z,69.20
2019-01-08T04:17:05.683Z,69.00
2019-01-08T04:19:34.797Z,69.00
2019-01-08T04:22:03.624Z,69.00
2019-01-08T04:24:32.454Z,69.10
2019-01-08T04:27:01.374Z,69.30
2019-01-08T04:29:30.299Z,69.50
2019-01-08T04:31:59.172Z,69.40
2019-01-08T04:34:28.047Z,69.30
2019-01-08T04:36:56.882Z,69.20
2019-01-08T04:39:26.033Z,69.10
2019-01-08T04:41:55.186Z,68.90
2019-01-08T04:44:24.030Z,68.80
2019-01-08T04:46:52.865Z,69.00
2019-01-08T04:49:21.963Z,69.10
2019-01-08T04:51:50.821Z,69.10
2019-01-08T04:54:19.706Z,69.20
2019-01-08T04:56:48.573Z,69.30
2019-01-08T04:59:17.693Z,69.30
2019-01-08T05:01:46.550Z,69.20
2019-01-08T05:04:15.548Z,69.10
2019-01-08T05:06:44.421Z,69.10
2019-01-08T05:09:13.554Z,69.00
2019-01-08T05:11:42.492Z,69.00
2019-01-08T05:14:11.333Z,68.80
2019-01-08T05:16:40.223Z,68.60
2019-01-08T05:19:09.217Z,68.40
2019-01-08T05:21:38.049Z,68.40
2019-01-08T05:24:06.885Z,68.40
2019-01-08T05:26:35.757Z,68.40
2019-01-08T05:29:04.933Z,68.40
2019-01-08T05:31:33.765Z,68.50
2019-01-08T05:34:02.709Z,68.50
2019-01-08T05:36:31.547Z,68.50
2019-01-08T05:39:00.629Z,68.50
2019-01-08T05:41:29.493Z,69.10
2019-01-08T05:43:58.314Z,68.60
2019-01-08T05:46:27.213Z,68.80
2019-01-08T05:48:56.105Z,69.10
2019-01-08T05:51:24.969Z,69.40
2019-01-08T05:53:53.824Z,69.60
2019-01-08T05:56:22.725Z,69.80
2019-01-08T05:58:52.082Z,70.20
2019-01-08T06:01:20.946Z,70.40
2019-01-08T06:03:49.837Z,70.60
2019-01-08T06:06:18.673Z,70.90
2019-01-08T06:08:47.705Z,71.00
2019-01-08T06:11:18.929Z,71.00
2019-01-08T06:13:48.134Z,71.10
2019-01-08T06:16:17.023Z,71.20
2019-01-08T06:18:46.131Z,71.30
2019-01-08T06:21:15.082Z,71.40
2019-01-08T06:23:44.032Z,71.40
2019-01-08T06:26:13.002Z,71.50
2019-01-08T06:28:42.065Z,71.50
2019-01-08T06:31:10.982Z,71.50
2019-01-08T06:33:39.854Z,71.50
2019-01-08T06:36:08.769Z,71.60
2019-01-08T06:38:37.947Z,71.60
2019-01-08T06:41:09.151Z,71.60
2019-01-08T06:43:37.989Z,71.60
2019-01-08T06:46:06.907Z,71.60
2019-01-08T06:48:36.916Z,71.50
2019-01-08T06:51:05.766Z,71.60
2019-01-08T06:53:34.583Z,71.50
2019-01-08T06:56:03.522Z,71.50
2019-01-08T06:58:33.450Z,71.50
2019-01-08T07:01:02.280Z,71.40
2019-01-08T07:03:31.289Z,71.50
2019-01-08T07:06:01.327Z,71.50
2019-01-08T07:08:30.643Z,71.40
2019-01-08T07:10:59.997Z,71.50
2019-01-08T07:13:28.853Z,71.30
2019-01-08T07:15:57.725Z,71.30
2019-01-08T07:18:26.854Z,71.30
2019-01-08T07:20:55.693Z,71.40
2019-01-08T07:23:24.581Z,71.50
2019-01-08T07:25:53.482Z,71.40
2019-01-08T07:28:23.837Z,71.40
2019-01-08T07:30:52.877Z,71.40
2019-01-08T07:33:21.810Z,71.30
2019-01-08T07:35:51.518Z,71.50
2019-01-08T07:38:20.398Z,71.40
2019-01-08T07:40:49.253Z,71.40
2019-01-08T07:43:18.082Z,71.40
2019-01-08T07:45:47.301Z,71.30
2019-01-08T07:48:16.269Z,71.30
2019-01-08T07:50:45.251Z,71.20
2019-01-08T07:53:14.273Z,71.20
2019-01-08T07:55:43.267Z,71.10
2019-01-08T07:58:13.014Z,71.10
2019-01-08T08:00:49.783Z,71.20
2019-01-08T08:03:12.483Z,71.20
2019-01-08T08:05:41.361Z,71.10
2019-01-08T08:08:10.249Z,71.10
2019-01-08T08:10:39.107Z,71.00
2019-01-08T08:13:08.030Z,71.00
2019-01-08T08:15:36.895Z,70.90
2019-01-08T08:18:05.858Z,70.70
2019-01-08T08:20:35.842Z,70.60
2019-01-08T08:23:04.761Z,70.60
2019-01-08T08:25:33.646Z,70.50
2019-01-08T08:28:02.680Z,70.40
2019-01-08T08:30:31.541Z,70.30
2019-01-08T08:33:00.466Z,70.30
2019-01-08T08:35:29.516Z,70.50
2019-01-08T08:37:58.667Z,70.60
2019-01-08T08:40:27.592Z,70.60
2019-01-08T08:42:56.598Z,70.80
2019-01-08T08:45:25.425Z,70.90
2019-01-08T08:47:54.305Z,71.00
2019-01-08T08:50:23.205Z,70.90
2019-01-08T08:52:52.441Z,70.90
2019-01-08T08:55:21.263Z,70.90
2019-01-08T08:57:50.781Z,70.80
2019-01-08T09:00:19.818Z,70.80
2019-01-08T09:02:48.743Z,70.80
2019-01-08T09:05:17.834Z,70.80
2019-01-08T09:07:46.762Z,70.80
2019-01-08T09:10:17.018Z,70.70
2019-01-08T09:12:45.994Z,70.60
2019-01-08T09:15:14.974Z,70.70
2019-01-08T09:17:44.011Z,70.70
2019-01-08T09:20:13.038Z,70.60
2019-01-08T09:22:42.609Z,70.90
2019-01-08T09:25:11.781Z,71.00
2019-01-08T09:27:40.722Z,71.00
2019-01-08T09:30:09.875Z,70.90
2019-01-08T09:32:38.886Z,70.90
2019-01-08T09:35:07.803Z,70.80
2019-01-08T09:37:36.673Z,70.90
2019-01-08T09:40:05.898Z,71.00
2019-01-08T09:42:34.916Z,71.00
2019-01-08T09:45:04.028Z,70.60
2019-01-08T09:47:33.018Z,70.60
2019-01-08T09:50:04.214Z,70.60
2019-01-08T09:52:33.397Z,70.60
2019-01-08T09:55:03.132Z,70.70
2019-01-08T09:57:31.974Z,70.50
2019-01-08T10:00:06.765Z,70.50
2019-01-08T10:02:37.310Z,70.50
2019-01-08T10:05:06.519Z,70.50
2019-01-08T10:07:36.538Z,70.80
2019-01-08T10:10:06.402Z,70.30
2019-01-08T10:12:36.443Z,70.20
2019-01-08T10:15:05.681Z,70.10
2019-01-08T10:17:34.558Z,70.00
2019-01-08T10:20:03.681Z,70.00
2019-01-08T10:22:32.599Z,70.40
2019-01-08T10:25:01.449Z,70.70
2019-01-08T10:27:30.340Z,71.20
2019-01-08T10:29:59.838Z,71.80
2019-01-08T10:32:28.825Z,72.20
2019-01-08T10:34:59.530Z,72.50
2019-01-08T10:37:28.621Z,72.90
2019-01-08T10:39:57.473Z,73.10
2019-01-08T10:42:26.436Z,73.30
2019-01-08T10:44:55.645Z,73.40
2019-01-08T10:47:24.585Z,73.50
2019-01-08T10:49:53.470Z,73.70
2019-01-08T10:52:22.483Z,73.80
2019-01-08T10:54:52.112Z,73.90
2019-01-08T10:57:21.058Z,74.00
2019-01-08T10:59:50.058Z,73.90
2019-01-08T11:02:18.937Z,74.00
2019-01-08T11:04:48.066Z,74.20
2019-01-08T11:07:17.778Z,74.20
2019-01-08T11:09:46.896Z,74.10
2019-01-08T11:12:16.037Z,73.70
2019-01-08T11:14:45.012Z,73.60
2019-01-08T11:17:14.389Z,73.60
2019-01-08T11:19:45.462Z,73.70
2019-01-08T11:22:14.476Z,73.50
2019-01-08T11:24:43.429Z,73.30
2019-01-08T11:27:12.482Z,73.10
2019-01-08T11:29:41.375Z,73.00
2019-01-08T11:32:10.321Z,73.00
2019-01-08T11:34:40.002Z,72.90
2019-01-08T11:37:11.506Z,73.00
2019-01-08T11:39:40.522Z,73.00
2019-01-08T11:42:10.972Z,73.10
2019-01-08T11:44:40.487Z,73.00
2019-01-08T11:47:11.015Z,73.00
2019-01-08T11:49:40.315Z,73.00
2019-01-08T11:52:09.392Z,73.00
2019-01-08T11:54:41.290Z,72.90
2019-01-08T11:57:09.304Z,73.00
2019-01-08T11:59:38.437Z,73.00
2019-01-08T12:02:07.436Z,72.90
2019-01-08T12:04:37.120Z,73.00
2019-01-08T12:07:06.566Z,72.90
2019-01-08T12:09:36.473Z,73.00
2019-01-08T12:12:06.002Z,73.10
2019-01-08T12:14:36.954Z,73.20
2019-01-08T12:17:07.099Z,73.10
2019-01-08T12:19:36.095Z,73.00
2019-01-08T12:22:05.140Z,72.80
2019-01-08T12:24:34.431Z,72.70
2019-01-08T12:27:04.250Z,72.60
2019-01-08T12:29:33.262Z,72.80
2019-01-08T12:32:06.259Z,73.10
2019-01-08T12:34:32.847Z,73.20
2019-01-08T12:37:01.877Z,73.40
2019-01-08T12:39:39.620Z,73.40
2019-01-08T12:42:09.033Z,73.50
2019-01-08T12:44:37.999Z,73.40
2019-01-08T12:47:07.985Z,73.50
2019-01-08T12:49:39.042Z,73.50
2019-01-08T12:52:08.215Z,73.50
2019-01-08T12:54:37.138Z,73.60
2019-01-08T12:57:06.254Z,73.40
2019-01-08T12:59:41.290Z,73.40
2019-01-08T13:02:14.839Z,73.60
2019-01-08T13:04:43.992Z,74.20
2019-01-08T13:07:13.009Z,73.70
2019-01-08T13:09:42.109Z,73.50
2019-01-08T13:12:11.049Z,73.80
2019-01-08T13:14:39.952Z,73.80
2019-01-08T13:17:11.701Z,73.70
2019-01-08T13:19:40.720Z,73.80
2019-01-08T13:22:09.667Z,73.70
2019-01-08T13:24:38.601Z,73.80
2019-01-08T13:27:08.599Z,74.00
2019-01-08T13:29:37.716Z,73.90
2019-01-08T13:32:06.735Z,73.90
2019-01-08T13:34:35.694Z,73.90
2019-01-08T13:37:04.951Z,73.80
2019-01-08T13:39:33.978Z,73.80
2019-01-08T13:42:02.910Z,73.70
2019-01-08T13:44:31.922Z,73.60
2019-01-08T13:47:00.973Z,73.60
2019-01-08T13:49:29.889Z,73.60
2019-01-08T13:51:58.910Z,73.60
2019-01-08T13:54:27.923Z,73.50
2019-01-08T13:56:57.200Z,73.30
2019-01-08T13:59:26.277Z,73.10
2019-01-08T14:01:56.681Z,72.80
2019-01-08T14:04:25.571Z,72.50
2019-01-08T14:06:55.184Z,72.60
2019-01-08T14:09:24.235Z,72.80
2019-01-08T14:11:53.209Z,73.10
2019-01-08T14:14:22.407Z,73.20
2019-01-08T14:16:51.511Z,73.00
2019-01-08T14:19:20.935Z,73.10
2019-01-08T14:21:50.019Z,73.20
2019-01-08T14:24:19.816Z,73.20
2019-01-08T14:26:49.177Z,73.20
2019-01-08T14:29:18.184Z,73.30
2019-01-08T14:31:52.482Z,73.80
2019-01-08T14:34:21.714Z,72.80
2019-01-08T14:36:50.632Z,72.80
2019-01-08T14:39:19.718Z,72.80
2019-01-08T14:41:48.626Z,72.80
2019-01-08T14:44:17.654Z,72.60
2019-01-08T14:46:46.688Z,72.50
2019-01-08T14:49:20.901Z,72.50
2019-01-08T14:51:50.555Z,72.70
2019-01-08T14:54:19.507Z,72.60
2019-01-08T14:56:48.478Z,72.40
2019-01-08T14:59:17.494Z,72.30
2019-01-08T15:01:47.450Z,72.40
2019-01-08T15:04:16.430Z,72.30
2019-01-08T15:06:45.661Z,72.10
2019-01-08T15:09:14.635Z,72.00
2019-01-08T15:11:43.590Z,71.80
2019-01-08T15:14:13.038Z,71.60
2019-01-08T15:16:42.369Z,71.50
2019-01-08T15:19:11.494Z,71.30
2019-01-08T15:21:40.646Z,71.00
2019-01-08T15:24:10.260Z,70.90
2019-01-08T15:26:39.894Z,71.00
2019-01-08T15:29:09.047Z,70.80
2019-01-08T15:31:38.308Z,70.70
2019-01-08T15:34:08.912Z,70.30
2019-01-08T15:36:38.287Z,70.00
2019-01-08T15:39:13.196Z,69.90
2019-01-08T15:41:42.490Z,69.80
2019-01-08T15:44:15.448Z,70.00
2019-01-08T15:46:42.103Z,69.80
2019-01-08T15:49:11.564Z,69.50
2019-01-08T15:51:40.886Z,69.20
2019-01-08T15:54:10.628Z,69.80
2019-01-08T15:56:40.259Z,69.20
2019-01-08T15:59:23.832Z,69.00
2019-01-08T16:01:53.322Z,68.30
2019-01-08T16:04:22.361Z,68.10
2019-01-08T16:06:51.978Z,68.10
2019-01-08T16:09:26.128Z,68.20
2019-01-08T16:11:55.466Z,67.80
2019-01-08T16:14:25.475Z,67.50
2019-01-08T16:16:54.569Z,67.40
2019-01-08T16:19:23.560Z,67.50
2019-01-08T16:21:53.493Z,67.50
2019-01-08T16:24:23.535Z,67.40
2019-01-08T16:26:53.056Z,67.40
2019-01-08T16:29:22.508Z,67.60
2019-01-08T16:31:51.738Z,67.80
2019-01-08T16:34:21.127Z,67.80
2019-01-08T16:36:50.535Z,67.50
2019-01-08T16:39:20.318Z,67.40
2019-01-08T16:41:49.393Z,67.40
2019-01-08T16:44:18.529Z,67.40
2019-01-08T16:46:48.069Z,67.40
2019-01-08T16:49:17.880Z,67.40
2019-01-08T16:51:46.822Z,67.30
2019-01-08T16:54:17.805Z,67.40
2019-01-08T16:56:47.798Z,67.60
2019-01-08T16:59:17.007Z,67.60
2019-01-08T17:01:46.043Z,67.50
2019-01-08T17:04:15.110Z,67.50
2019-01-08T17:06:44.095Z,67.80
2019-01-08T17:09:23.289Z,67.90
2019-01-08T17:11:52.682Z,67.80
2019-01-08T17:14:23.210Z,67.70
2019-01-08T17:16:52.623Z,67.70
2019-01-08T17:19:26.993Z,68.20
2019-01-08T17:21:56.830Z,68.70
2019-01-08T17:24:25.718Z,68.80
2019-01-08T17:26:54.990Z,68.70
2019-01-08T17:29:23.858Z,68.80
2019-01-08T17:31:52.734Z,68.60
2019-01-08T17:34:21.906Z,68.80
2019-01-08T17:36:50.864Z,69.10
2019-01-08T17:39:19.731Z,69.10
2019-01-08T17:41:48.586Z,69.20
2019-01-08T17:44:18.582Z,69.20
2019-01-08T17:46:47.481Z,69.40
2019-01-08T17:49:16.517Z,69.20
2019-01-08T17:51:46.336Z,69.20
2019-01-08T17:54:15.510Z,69.10
2019-01-08T17:56:44.676Z,69.00
2019-01-08T17:59:16.003Z,68.90
2019-01-08T18:01:57.184Z,68.80
2019-01-08T18:04:26.210Z,68.70
2019-01-08T18:06:55.152Z,68.20
2019-01-08T18:09:24.547Z,67.90
2019-01-08T18:11:53.785Z,67.70
2019-01-08T18:14:22.667Z,67.40
2019-01-08T18:16:51.722Z,67.40
2019-01-08T18:19:20.785Z,67.10
2019-01-08T18:21:49.901Z,67.20
2019-01-08T18:24:19.363Z,66.90
2019-01-08T18:26:48.554Z,67.00
2019-01-08T18:29:17.842Z,67.00
2019-01-08T18:31:47.044Z,67.10
2019-01-08T18:34:16.417Z,67.10
2019-01-08T18:36:45.835Z,67.00
2019-01-08T18:39:14.803Z,66.80
2019-01-08T18:41:45.273Z,66.70
2019-01-08T18:44:19.631Z,66.70
2019-01-08T18:46:49.819Z,66.50
2019-01-08T18:49:23.005Z,66.50
2019-01-08T18:51:52.249Z,66.50
2019-01-08T18:54:23.649Z,66.50
2019-01-08T18:56:53.962Z,66.30
2019-01-08T18:59:33.493Z,66.00
2019-01-08T19:02:03.625Z,65.90
2019-01-08T19:04:32.482Z,65.70
2019-01-08T19:07:01.733Z,65.60
2019-01-08T19:09:36.025Z,65.80
2019-01-08T19:12:13.538Z,65.70
2019-01-08T19:14:43.081Z,65.70
2019-01-08T19:17:12.109Z,65.60
2019-01-08T19:19:41.234Z,65.70
2019-01-08T19:22:10.331Z,65.60
2019-01-08T19:24:39.627Z,65.50
2019-01-08T19:27:08.657Z,65.70
2019-01-08T19:29:53.002Z,65.70
2019-01-08T19:32:22.341Z,65.80
2019-01-08T19:34:53.543Z,65.60
2019-01-08T19:37:27.382Z,65.60
2019-01-08T19:39:59.110Z,65.70
2019-01-08T19:42:28.016Z,65.80
2019-01-08T19:44:57.998Z,66.10
2019-01-08T19:47:27.683Z,66.50
2019-01-08T19:49:57.493Z,67.00
2019-01-08T19:52:47.190Z,67.60
2019-01-08T19:55:23.221Z,67.90
2019-01-08T19:57:52.244Z,68.40
2019-01-08T20:00:21.149Z,68.80
2019-01-08T20:03:11.605Z,68.90
2019-01-08T20:05:42.162Z,69.20
2019-01-08T20:08:14.809Z,69.40
2019-01-08T20:10:43.764Z,69.60
2019-01-08T20:13:12.746Z,69.90
2019-01-08T20:15:43.669Z,70.00
2019-01-08T20:18:14.280Z,70.20
2019-01-08T20:20:50.886Z,70.20
2019-01-08T20:23:19.522Z,70.10
2019-01-08T20:25:51.617Z,70.20
2019-01-08T20:28:20.631Z,70.40
2019-01-08T20:30:49.647Z,70.50
2019-01-08T20:33:18.551Z,70.50
2019-01-08T20:35:52.067Z,70.50
2019-01-08T20:38:19.674Z,70.90
2019-01-08T20:40:53.856Z,70.20
2019-01-08T20:43:24.438Z,70.60
2019-01-08T20:45:53.413Z,70.50
2019-01-08T20:48:24.433Z,70.40
2019-01-08T20:50:54.903Z,70.40
2019-01-08T20:53:32.585Z,70.50
2019-01-08T20:56:01.580Z,70.30
2019-01-08T20:58:30.510Z,70.50
2019-01-08T21:00:59.894Z,70.60
2019-01-08T21:03:28.769Z,70.80
2019-01-08T21:05:57.714Z,70.90
2019-01-08T21:08:27.627Z,71.00
2019-01-08T21:10:56.643Z,71.00
2019-01-08T21:13:25.585Z,71.00
2019-01-08T21:15:54.447Z,71.20
2019-01-08T21:18:24.265Z,71.40
2019-01-08T21:20:53.221Z,71.70
2019-01-08T21:23:22.439Z,71.60
2019-01-08T21:25:51.744Z,71.70
2019-01-08T21:28:21.898Z,71.70
2019-01-08T21:31:00.924Z,71.70
2019-01-08T21:33:54.385Z,71.60
2019-01-08T21:36:28.201Z,71.40
2019-01-08T21:39:23.022Z,71.30
2019-01-08T21:41:52.804Z,71.20
2019-01-08T21:44:23.226Z,71.30
2019-01-08T21:46:52.189Z,71.40
2019-01-08T21:49:21.837Z,71.40
2019-01-08T21:51:52.209Z,71.40
2019-01-08T21:54:22.130Z,71.30
2019-01-08T21:56:58.110Z,71.20
2019-01-08T21:59:27.170Z,71.20
2019-01-08T22:01:59.226Z,71.20
2019-01-08T22:04:28.068Z,71.10
2019-01-08T22:07:00.917Z,71.00
2019-01-08T22:09:44.557Z,71.00
2019-01-08T22:12:14.250Z,70.90
2019-01-08T22:14:45.422Z,70.70
2019-01-08T22:17:14.428Z,70.80
2019-01-08T22:19:44.401Z,70.90
2019-01-08T22:22:13.325Z,70.70
2019-01-08T22:24:42.161Z,70.70
2019-01-08T22:27:11.875Z,70.60
2019-01-08T22:29:40.876Z,70.80
2019-01-08T22:32:10.755Z,70.90
2019-01-08T22:34:40.656Z,70.90
2019-01-08T22:37:11.374Z,70.80
2019-01-08T22:39:45.439Z,70.80
2019-01-08T22:42:14.354Z,70.80
2019-01-08T22:44:44.073Z,70.70
2019-01-08T22:47:14.568Z,70.80
2019-01-08T22:49:44.926Z,70.60
2019-01-08T22:52:13.855Z,70.40
2019-01-08T22:54:42.809Z,70.40
2019-01-08T22:57:13.468Z,70.30
2019-01-08T22:59:46.236Z,70.30
2019-01-08T23:02:19.546Z,70.00
2019-01-08T23:04:49.517Z,69.90
2019-01-08T23:07:19.333Z,69.80
2019-01-08T23:09:49.097Z,69.60
2019-01-08T23:12:18.346Z,69.60
2019-01-08T23:14:48.517Z,69.70
2019-01-08T23:17:20.691Z,69.50
2019-01-08T23:19:51.506Z,69.30
2019-01-08T23:22:23.395Z,69.10
2019-01-08T23:24:52.414Z,68.60
2019-01-08T23:27:21.404Z,68.00
2019-01-08T23:29:51.174Z,68.10
2019-01-08T23:32:19.995Z,67.80
2019-01-08T23:34:48.827Z,67.70
2019-01-08T23:37:17.881Z,67.60
2019-01-08T23:39:46.985Z,67.50
2019-01-08T23:42:15.936Z,67.50
2019-01-08T23:44:44.921Z,67.40
2019-01-08T23:47:14.293Z,67.40
2019-01-08T23:49:43.613Z,67.20
2019-01-08T23:52:23.748Z,67.40
2019-01-08T23:54:54.498Z,67.30
2019-01-08T23:57:25.977Z,67.10
2019-01-08T23:59:56.055Z,66.90
